Time;durP1;ratioP1;P1;durP2;ratioP2;P2;SDS_P1;SDS_P2;PMS_P1;PMS_P2;Temp;Humidity;BMP_temperature;BMP_pressure;BME280_temperature;BME280_humidity;BME280_pressure;Samples;Min_cycle;Max_cycle;Signal;HPM_P1;HPM_P2
2021/08/10 00:01:43;;;;;;;557.00;433.08;;;;;;;;;;5055368;28;20362;-76
2021/08/10 00:04:09;;;;;;;555.15;433.63;;;;;;;;;;5058154;28;20017;-76
2021/08/10 00:06:34;;;;;;;557.58;438.95;;;;;;;;;;5057435;28;20105;-76
2021/08/10 00:09:00;;;;;;;562.05;448.70;;;;;;;;;;5029997;28;20503;-76
2021/08/10 00:11:26;;;;;;;559.05;441.83;;;;;;;;;;5054947;28;20335;-77
2021/08/10 00:13:52;;;;;;;561.08;443.77;;;;;;;;;;5058508;28;20363;-76
2021/08/10 00:16:18;;;;;;;555.33;431.17;;;;;;;;;;5057165;28;20486;-77
2021/08/10 00:18:44;;;;;;;556.03;438.48;;;;;;;;;;5058388;28;20466;-76
2021/08/10 00:21:10;;;;;;;555.97;437.50;;;;;;;;;;5057530;28;20020;-76
2021/08/10 00:23:36;;;;;;;557.95;443.23;;;;;;;;;;5058089;28;20040;-76
2021/08/10 00:26:02;;;;;;;557.47;442.45;;;;;;;;;;5056176;28;20099;-76
2021/08/10 00:28:28;;;;;;;557.63;439.30;;;;;;;;;;5027741;28;20021;-76
2021/08/10 00:30:54;;;;;;;558.10;440.63;;;;;;;;;;5054196;28;20106;-76
2021/08/10 00:33:20;;;;;;;553.97;431.33;;;;;;;;;;5037196;28;20354;-76
2021/08/10 00:35:46;;;;;;;551.47;427.40;;;;;;;;;;5053731;28;20355;-77
2021/08/10 00:38:12;;;;;;;558.20;445.50;;;;;;;;;;5035914;28;20130;-76
2021/08/10 00:40:39;;;;;;;557.63;436.90;;;;;;;;;;5054376;28;20021;-76
2021/08/10 00:43:25;;;;;;;558.92;438.77;;;;;;;;;;5054905;28;20104;-76
2021/08/10 00:45:51;;;;;;;555.63;437.13;;;;;;;;;;5034112;28;20094;-76
2021/08/10 00:48:19;;;;;;;554.00;431.65;;;;;;;;;;5036383;28;20025;-76
2021/08/10 00:50:46;;;;;;;558.17;436.83;;;;;;;;;;5036386;28;20128;-75
2021/08/10 00:53:12;;;;;;;557.25;436.58;;;;;;;;;;5054561;28;20048;-76
2021/08/10 00:55:38;;;;;;;560.90;442.45;;;;;;;;;;5053282;28;20025;-76
2021/08/10 00:58:06;;;;;;;557.72;439.67;;;;;;;;;;5048973;28;20048;-76
2021/08/10 01:00:32;;;;;;;557.08;435.75;;;;;;;;;;5054324;28;20029;-76
2021/08/10 01:02:58;;;;;;;556.15;435.30;;;;;;;;;;5054110;28;20055;-76
2021/08/10 01:05:24;;;;;;;560.88;444.92;;;;;;;;;;5051172;28;20602;-76
2021/08/10 01:07:58;;;;;;;554.15;429.48;;;;;;;;;;5034191;28;20442;-76
2021/08/10 01:10:26;;;;;;;556.30;439.33;;;;;;;;;;5053148;28;20383;-75
2021/08/10 01:13:11;;;;;;;557.80;438.58;;;;;;;;;;5054292;28;20040;-77
2021/08/10 01:15:51;;;;;;;555.95;434.95;;;;;;;;;;5035924;28;20621;-76
2021/08/10 01:18:22;;;;;;;561.15;435.23;;;;;;;;;;5032593;28;20155;-76
2021/08/10 01:21:08;;;;;;;552.17;431.05;;;;;;;;;;5054148;28;20025;-76
2021/08/10 01:23:35;;;;;;;555.20;428.38;;;;;;;;;;5049907;28;20488;-75
2021/08/10 01:26:05;;;;;;;558.75;439.33;;;;;;;;;;5053049;28;20032;-75
2021/08/10 01:28:46;;;;;;;557.33;434.45;;;;;;;;;;5052067;28;20025;-76
2021/08/10 01:31:26;;;;;;;554.97;429.50;;;;;;;;;;5053827;28;20394;-76
2021/08/10 01:33:56;;;;;;;560.95;448.58;;;;;;;;;;5053579;28;20078;-76
2021/08/10 01:36:22;;;;;;;560.28;443.08;;;;;;;;;;5052479;28;20085;-76
2021/08/10 01:38:51;;;;;;;559.45;437.48;;;;;;;;;;5052491;28;20025;-76
2021/08/10 01:41:18;;;;;;;558.05;436.70;;;;;;;;;;5053458;28;20100;-76
2021/08/10 01:43:44;;;;;;;556.30;435.83;;;;;;;;;;5053653;28;20151;-76
2021/08/10 01:46:10;;;;;;;555.58;434.20;;;;;;;;;;5052722;28;20036;-76
2021/08/10 01:48:37;;;;;;;556.95;436.70;;;;;;;;;;5053023;28;20047;-76
2021/08/10 01:51:08;;;;;;;558.63;441.42;;;;;;;;;;5053396;28;20060;-76
2021/08/10 01:53:34;;;;;;;;;;;;;;;;;;5034872;28;20041;-76
2021/08/10 01:56:01;;;;;;;555.95;420.02;;;;;;;;;;5051155;28;20000;-76
2021/08/10 01:58:28;;;;;;;550.50;420.58;;;;;;;;;;5035318;28;20443;-76
2021/08/10 02:00:55;;;;;;;558.08;437.90;;;;;;;;;;5052860;28;20099;-76
2021/08/10 02:03:22;;;;;;;554.53;423.98;;;;;;;;;;5054824;28;20362;-77
2021/08/10 02:05:48;;;;;;;555.10;433.55;;;;;;;;;;5053101;28;20031;-76
2021/08/10 02:08:15;;;;;;;558.20;435.75;;;;;;;;;;5054427;28;20039;-76
2021/08/10 02:10:41;;;;;;;556.85;432.17;;;;;;;;;;5054274;28;20044;-76
2021/08/10 02:13:09;;;;;;;558.35;437.17;;;;;;;;;;5052763;28;20029;-75
2021/08/10 02:15:36;;;;;;;552.45;431.42;;;;;;;;;;5052464;28;20470;-76
2021/08/10 02:18:02;;;;;;;554.15;432.17;;;;;;;;;;5034631;28;20355;-75
2021/08/10 02:20:29;;;;;;;553.10;432.92;;;;;;;;;;5052695;28;20529;-76
2021/08/10 02:22:55;;;;;;;552.28;429.77;;;;;;;;;;5052736;28;20467;-76
2021/08/10 02:25:26;;;;;;;552.25;426.27;;;;;;;;;;5052201;28;20048;-75
2021/08/10 02:27:51;;;;;;;;;;;;;;;;;;5052979;28;20077;-75
2021/08/10 02:30:21;;;;;;;553.40;414.30;;;;;;;;;;5052860;28;20011;-76
2021/08/10 02:32:47;;;;;;;560.30;435.15;;;;;;;;;;5052814;28;20060;-75
2021/08/10 02:35:15;;;;;;;559.88;424.52;;;;;;;;;;5052007;28;20043;-75
2021/08/10 02:37:43;;;;;;;556.72;436.50;;;;;;;;;;5052019;28;20021;-76
2021/08/10 02:40:10;;;;;;;557.25;431.67;;;;;;;;;;5046908;28;20025;-76
2021/08/10 02:42:36;;;;;;;554.78;431.02;;;;;;;;;;5052481;28;20036;-76
2021/08/10 02:45:04;;;;;;;557.50;436.35;;;;;;;;;;5050428;28;20033;-76
2021/08/10 02:47:30;;;;;;;557.67;434.23;;;;;;;;;;5052601;28;21937;-76
2021/08/10 02:49:56;;;;;;;551.90;429.50;;;;;;;;;;5051885;28;20105;-76
2021/08/10 02:52:22;;;;;;;552.15;431.65;;;;;;;;;;5052246;28;20155;-76
2021/08/10 02:54:48;;;;;;;556.60;435.83;;;;;;;;;;5051518;28;20159;-76
2021/08/10 02:57:20;;;;;;;556.63;435.00;;;;;;;;;;5050882;28;20444;-76
2021/08/10 03:00:05;;;;;;;555.97;433.85;;;;;;;;;;5034691;28;20040;-76
2021/08/10 03:02:34;;;;;;;557.42;433.02;;;;;;;;;;5031947;28;20056;-75
2021/08/10 03:05:07;;;;;;;558.33;437.90;;;;;;;;;;5032816;28;20040;-76
2021/08/10 03:07:34;;;;;;;559.05;432.42;;;;;;;;;;5050180;28;20079;-75
2021/08/10 03:10:01;;;;;;;552.97;427.50;;;;;;;;;;5050258;28;20017;-76
2021/08/10 03:12:28;;;;;;;554.75;439.63;;;;;;;;;;5033407;28;20041;-76
2021/08/10 03:14:55;;;;;;;550.72;424.83;;;;;;;;;;5052101;28;20459;-76
2021/08/10 03:17:22;;;;;;;555.97;434.58;;;;;;;;;;5052007;28;20052;-76
2021/08/10 03:19:49;;;;;;;552.63;429.42;;;;;;;;;;5050694;28;20518;-76
2021/08/10 03:22:16;;;;;;;554.58;432.08;;;;;;;;;;5051869;28;20029;-75
2021/08/10 03:24:42;;;;;;;553.40;433.52;;;;;;;;;;5051375;28;20094;-76
2021/08/10 03:27:10;;;;;;;550.30;425.80;;;;;;;;;;5051924;28;20074;-76
2021/08/10 03:29:37;;;;;;;554.38;432.13;;;;;;;;;;5051051;28;20041;-75
2021/08/10 03:32:04;;;;;;;555.60;434.27;;;;;;;;;;5052109;28;20067;-75
2021/08/10 03:34:31;;;;;;;552.53;427.75;;;;;;;;;;5051625;28;20620;-76
2021/08/10 03:36:57;;;;;;;555.65;426.30;;;;;;;;;;5051648;28;20119;-76
2021/08/10 03:39:24;;;;;;;552.17;427.98;;;;;;;;;;5050719;28;20379;-76
2021/08/10 03:41:50;;;;;;;555.83;430.60;;;;;;;;;;5051625;28;20051;-76
2021/08/10 03:44:16;;;;;;;552.28;428.77;;;;;;;;;;5026207;28;20444;-75
2021/08/10 03:46:43;;;;;;;553.90;427.27;;;;;;;;;;5051978;28;20036;-75
2021/08/10 03:49:10;;;;;;;549.95;417.83;;;;;;;;;;5049605;28;20033;-76
2021/08/10 03:51:37;;;;;;;552.50;425.70;;;;;;;;;;5052075;28;20025;-76
2021/08/10 03:54:03;;;;;;;553.45;428.92;;;;;;;;;;5051087;28;20135;-75
2021/08/10 03:56:29;;;;;;;554.42;428.08;;;;;;;;;;5044928;28;20043;-75
2021/08/10 03:58:57;;;;;;;552.78;423.85;;;;;;;;;;5050592;28;20636;-75
2021/08/10 04:01:25;;;;;;;552.58;427.60;;;;;;;;;;5034246;28;20767;-75
2021/08/10 04:03:52;;;;;;;555.03;427.23;;;;;;;;;;5047237;28;20040;-75
2021/08/10 04:06:18;;;;;;;553.03;426.90;;;;;;;;;;5037003;28;20041;-76
2021/08/10 04:08:44;;;;;;;554.38;428.35;;;;;;;;;;5032563;28;20029;-76
2021/08/10 04:11:10;;;;;;;553.80;426.35;;;;;;;;;;5055601;28;20036;-75
2021/08/10 04:13:36;;;;;;;555.40;425.02;;;;;;;;;;5055436;28;20032;-76
2021/08/10 04:16:04;;;;;;;550.28;419.17;;;;;;;;;;5055479;28;20480;-75
2021/08/10 04:18:30;;;;;;;552.38;421.02;;;;;;;;;;5054105;28;20029;-75
2021/08/10 04:20:56;;;;;;;557.83;432.50;;;;;;;;;;5055112;28;20040;-75
2021/08/10 04:23:22;;;;;;;556.70;429.33;;;;;;;;;;5054747;28;20020;-76
2021/08/10 04:25:49;;;;;;;559.00;434.35;;;;;;;;;;5054256;28;20060;-76
2021/08/10 04:28:15;;;;;;;554.90;429.00;;;;;;;;;;5054207;28;20075;-75
2021/08/10 04:30:42;;;;;;;556.70;421.23;;;;;;;;;;5055197;28;20029;-75
2021/08/10 04:33:08;;;;;;;551.40;420.00;;;;;;;;;;5036930;28;20394;-74
2021/08/10 04:35:34;;;;;;;553.67;428.38;;;;;;;;;;5054739;28;20057;-75
2021/08/10 04:38:00;;;;;;;551.05;422.92;;;;;;;;;;5054388;28;20021;-75
2021/08/10 04:40:28;;;;;;;550.95;427.40;;;;;;;;;;5054495;28;20056;-75
2021/08/10 04:42:54;;;;;;;557.13;429.77;;;;;;;;;;5052269;28;20044;-75
2021/08/10 04:45:21;;;;;;;555.50;430.17;;;;;;;;;;5054546;28;20025;-75
2021/08/10 04:47:48;;;;;;;552.72;426.92;;;;;;;;;;5055117;28;20025;-75
2021/08/10 04:50:14;;;;;;;557.42;430.15;;;;;;;;;;5054838;28;20336;-75
2021/08/10 04:52:40;;;;;;;556.00;433.90;;;;;;;;;;5053195;28;20047;-76
2021/08/10 04:55:07;;;;;;;556.40;437.05;;;;;;;;;;5049231;28;20091;-75
2021/08/10 04:57:33;;;;;;;551.22;426.30;;;;;;;;;;5051438;28;20098;-74
2021/08/10 04:59:59;;;;;;;551.67;422.65;;;;;;;;;;5050908;28;20017;-74
2021/08/10 05:02:25;;;;;;;563.42;442.15;;;;;;;;;;5050104;28;20044;-74
2021/08/10 05:04:51;;;;;;;552.20;428.98;;;;;;;;;;5052604;28;20365;-75
2021/08/10 05:07:17;;;;;;;551.35;426.80;;;;;;;;;;5054205;28;20025;-74
2021/08/10 05:09:43;;;;;;;553.55;431.00;;;;;;;;;;5050889;28;20028;-75
2021/08/10 05:12:09;;;;;;;555.25;430.73;;;;;;;;;;5054195;28;20361;-73
2021/08/10 05:14:36;;;;;;;557.17;438.35;;;;;;;;;;5053365;28;20362;-74
2021/08/10 05:17:02;;;;;;;555.28;428.90;;;;;;;;;;5054187;28;20074;-73
2021/08/10 05:19:28;;;;;;;557.83;435.58;;;;;;;;;;5035111;28;20490;-74
2021/08/10 05:21:54;;;;;;;554.85;431.00;;;;;;;;;;5053721;28;20025;-74
2021/08/10 05:24:20;;;;;;;556.50;432.83;;;;;;;;;;5052120;28;20040;-74
2021/08/10 05:26:46;;;;;;;557.20;432.52;;;;;;;;;;5053804;28;20048;-74
2021/08/10 05:29:12;;;;;;;552.97;431.63;;;;;;;;;;5051067;28;20033;-75
2021/08/10 05:31:38;;;;;;;553.90;431.52;;;;;;;;;;5052264;28;20115;-75
2021/08/10 05:34:05;;;;;;;560.15;441.80;;;;;;;;;;5053838;28;20588;-76
2021/08/10 05:36:31;;;;;;;552.85;429.92;;;;;;;;;;5053093;28;20029;-75
2021/08/10 05:38:57;;;;;;;564.08;449.08;;;;;;;;;;5051835;28;20075;-75
2021/08/10 05:41:24;;;;;;;560.53;437.38;;;;;;;;;;5053559;28;20355;-76
2021/08/10 05:43:51;;;;;;;556.25;431.23;;;;;;;;;;5053891;28;20572;-76
2021/08/10 05:46:16;;;;;;;551.13;427.55;;;;;;;;;;5051732;28;20112;-75
2021/08/10 05:48:42;;;;;;;557.72;436.65;;;;;;;;;;5045678;28;20108;-74
2021/08/10 05:51:09;;;;;;;562.63;442.08;;;;;;;;;;5053325;28;20036;-76
2021/08/10 05:53:35;;;;;;;558.03;433.70;;;;;;;;;;5053972;28;20049;-75
2021/08/10 05:56:02;;;;;;;566.50;445.35;;;;;;;;;;5035446;28;20029;-75
2021/08/10 05:58:28;;;;;;;560.30;438.83;;;;;;;;;;5053777;28;20142;-74
2021/08/10 06:00:54;;;;;;;560.90;438.10;;;;;;;;;;5027975;28;21758;-75
2021/08/10 06:03:21;;;;;;;558.65;442.65;;;;;;;;;;5053106;28;20036;-75
2021/08/10 06:05:47;;;;;;;552.80;430.25;;;;;;;;;;5034801;28;20025;-75
2021/08/10 06:08:13;;;;;;;555.22;437.27;;;;;;;;;;5052320;28;20524;-75
2021/08/10 06:10:39;;;;;;;555.00;439.92;;;;;;;;;;5035142;28;20025;-75
2021/08/10 06:13:05;;;;;;;549.08;422.67;;;;;;;;;;5035386;28;20029;-75
2021/08/10 06:15:31;;;;;;;557.05;436.20;;;;;;;;;;5053063;28;20474;-74
2021/08/10 06:17:57;;;;;;;558.22;436.17;;;;;;;;;;5053064;28;20490;-74
2021/08/10 06:20:23;;;;;;;563.20;446.15;;;;;;;;;;5052802;28;20025;-75
2021/08/10 06:22:49;;;;;;;559.10;443.08;;;;;;;;;;5052818;28;20025;-75
2021/08/10 06:25:15;;;;;;;556.78;436.20;;;;;;;;;;5052105;28;20025;-74
2021/08/10 06:27:41;;;;;;;582.22;447.40;;;;;;;;;;5052747;28;20017;-75
2021/08/10 06:30:09;;;;;;;567.80;458.85;;;;;;;;;;5034759;28;20060;-75
2021/08/10 06:32:35;;;;;;;568.35;454.98;;;;;;;;;;5052349;28;20503;-75
2021/08/10 06:35:01;;;;;;;563.00;442.20;;;;;;;;;;5052753;28;20108;-75
2021/08/10 06:37:27;;;;;;;561.95;447.80;;;;;;;;;;5052604;28;20035;-74
2021/08/10 06:39:53;;;;;;;562.80;454.88;;;;;;;;;;5052285;28;20342;-74
2021/08/10 06:42:20;;;;;;;566.75;459.08;;;;;;;;;;5034633;28;20091;-74
2021/08/10 06:44:46;;;;;;;560.65;450.52;;;;;;;;;;5052558;28;20037;-74
2021/08/10 06:47:12;;;;;;;558.65;452.73;;;;;;;;;;5052034;28;20071;-74
2021/08/10 06:49:39;;;;;;;570.42;460.55;;;;;;;;;;5052614;28;20355;-74
2021/08/10 06:52:05;;;;;;;569.53;461.40;;;;;;;;;;5052676;28;20079;-75
2021/08/10 06:54:32;;;;;;;566.83;457.13;;;;;;;;;;5052499;28;20128;-74
2021/08/10 06:57:02;;;;;;;565.92;456.42;;;;;;;;;;5042904;28;20021;-74
2021/08/10 06:59:28;;;;;;;568.47;467.90;;;;;;;;;;5042484;28;20020;-74
2021/08/10 07:01:54;;;;;;;564.38;459.58;;;;;;;;;;5048002;28;20029;-74
2021/08/10 07:04:20;;;;;;;573.17;463.27;;;;;;;;;;5052078;28;20110;-74
2021/08/10 07:06:45;;;;;;;562.13;451.08;;;;;;;;;;5050852;28;20035;-74
2021/08/10 07:09:11;;;;;;;572.67;466.58;;;;;;;;;;5041704;28;20033;-74
2021/08/10 07:11:42;;;;;;;567.95;463.55;;;;;;;;;;5039518;28;20080;-77
2021/08/10 07:14:11;;;;;;;569.95;457.05;;;;;;;;;;5034922;28;20025;-78
2021/08/10 07:16:37;;;;;;;569.30;464.47;;;;;;;;;;5033806;28;20056;-75
2021/08/10 07:19:03;;;;;;;573.55;472.35;;;;;;;;;;5050673;28;20833;-78
2021/08/10 07:21:29;;;;;;;568.38;468.08;;;;;;;;;;5022878;28;20124;-78
2021/08/10 07:23:55;;;;;;;570.38;465.15;;;;;;;;;;5033074;28;20044;-79
2021/08/10 07:26:22;;;;;;;573.75;469.75;;;;;;;;;;5030413;28;20033;-79
2021/08/10 07:28:48;;;;;;;576.88;477.98;;;;;;;;;;5030175;28;20026;-80
2021/08/10 07:31:15;;;;;;;583.33;487.15;;;;;;;;;;5025969;28;20056;-79
2021/08/10 07:33:41;;;;;;;575.45;473.95;;;;;;;;;;5034318;28;20025;-79
2021/08/10 07:36:07;;;;;;;578.47;477.38;;;;;;;;;;5034919;28;20125;-77
2021/08/10 07:38:33;;;;;;;584.45;484.83;;;;;;;;;;5032298;28;20017;-77
2021/08/10 07:40:59;;;;;;;581.83;489.38;;;;;;;;;;5036722;28;20102;-78
2021/08/10 07:43:25;;;;;;;577.35;482.25;;;;;;;;;;5037934;28;20052;-79
2021/08/10 07:45:51;;;;;;;571.60;485.20;;;;;;;;;;5037070;28;20059;-79
2021/08/10 07:48:17;;;;;;;579.40;492.05;;;;;;;;;;5037010;28;20467;-73
2021/08/10 07:50:43;;;;;;;589.00;499.55;;;;;;;;;;5055126;28;20024;-74
2021/08/10 07:53:09;;;;;;;591.30;502.63;;;;;;;;;;5054745;28;20479;-73
2021/08/10 07:55:36;;;;;;;580.17;491.45;;;;;;;;;;5036707;28;20400;-73
2021/08/10 07:58:02;;;;;;;588.67;498.85;;;;;;;;;;5053487;28;20155;-73
2021/08/10 08:00:28;;;;;;;595.30;502.92;;;;;;;;;;5054183;28;20091;-74
2021/08/10 08:02:54;;;;;;;586.92;492.60;;;;;;;;;;5054082;28;20028;-74
2021/08/10 08:05:20;;;;;;;574.60;487.70;;;;;;;;;;5035869;28;20106;-74
2021/08/10 08:07:46;;;;;;;593.85;504.25;;;;;;;;;;5048227;28;20082;-75
2021/08/10 08:10:12;;;;;;;598.80;513.05;;;;;;;;;;5052047;28;20025;-75
2021/08/10 08:12:38;;;;;;;623.58;537.20;;;;;;;;;;5053462;28;20104;-77
2021/08/10 08:15:06;;;;;;;609.88;530.40;;;;;;;;;;5052981;28;20090;-76
2021/08/10 08:17:32;;;;;;;600.22;509.83;;;;;;;;;;5057671;28;20032;-76
2021/08/10 08:19:58;;;;;;;590.97;515.53;;;;;;;;;;5054688;28;20020;-75
2021/08/10 08:22:27;;;;;;;591.50;504.52;;;;;;;;;;5052062;28;20048;-85
2021/08/10 08:24:53;;;;;;;597.33;514.92;;;;;;;;;;5040649;28;20036;-78
2021/08/10 08:27:19;;;;;;;595.30;517.92;;;;;;;;;;5037333;28;20029;-77
2021/08/10 08:29:45;;;;;;;580.95;511.58;;;;;;;;;;5035086;28;20053;-77
2021/08/10 08:32:22;;;;;;;592.63;527.35;;;;;;;;;;5044893;28;20048;-84
2021/08/10 08:34:51;;;;;;;597.20;531.22;;;;;;;;;;5049057;28;20390;-84
2021/08/10 08:37:18;;;;;;;596.90;529.17;;;;;;;;;;5035375;28;20036;-78
2021/08/10 08:39:44;;;;;;;612.03;545.17;;;;;;;;;;5031307;28;20017;-78
2021/08/10 08:42:14;;;;;;;601.60;535.42;;;;;;;;;;5053212;28;20115;-77
2021/08/10 08:44:40;;;;;;;610.20;543.80;;;;;;;;;;5050651;28;20024;-80
2021/08/10 08:47:07;;;;;;;607.28;540.80;;;;;;;;;;5036234;28;20065;-76
2021/08/10 08:49:33;;;;;;;609.80;543.65;;;;;;;;;;5034569;28;20032;-76
2021/08/10 08:52:04;;;;;;;625.72;559.25;;;;;;;;;;5050790;28;20424;-77
2021/08/10 08:54:31;;;;;;;615.08;548.55;;;;;;;;;;5044346;28;20052;-79
2021/08/10 08:56:57;;;;;;;619.58;553.33;;;;;;;;;;5052739;28;20462;-79
2021/08/10 08:59:24;;;;;;;617.33;550.90;;;;;;;;;;5038949;28;20032;-79
2021/08/10 09:01:51;;;;;;;611.78;546.03;;;;;;;;;;5037252;28;20119;-79
2021/08/10 09:04:17;;;;;;;613.42;547.75;;;;;;;;;;5037110;28;20029;-79
2021/08/10 09:06:43;;;;;;;612.17;546.53;;;;;;;;;;5037106;28;20407;-79
2021/08/10 09:09:23;;;;;;;616.97;551.10;;;;;;;;;;5036438;28;20043;-80
2021/08/10 09:11:50;;;;;;;;;;;;;;;;;;5027617;28;20033;-78
2021/08/10 09:14:16;;;;;;;609.13;542.72;;;;;;;;;;5026031;28;19908;-78
2021/08/10 09:17:01;;;;;;;620.05;553.63;;;;;;;;;;5025856;28;20032;-79
2021/08/10 09:19:47;;;;;;;615.10;548.92;;;;;;;;;;5043551;28;20021;-78
2021/08/10 09:22:22;;;;;;;621.95;555.35;;;;;;;;;;5025935;28;20025;-77
2021/08/10 09:24:51;;;;;;;617.40;551.13;;;;;;;;;;5025612;28;20025;-78
2021/08/10 09:27:24;;;;;;;610.70;545.03;;;;;;;;;;5025665;28;20029;-77
2021/08/10 09:29:52;;;;;;;616.75;550.78;;;;;;;;;;5025548;28;20709;-78
2021/08/10 09:32:18;;;;;;;614.53;548.53;;;;;;;;;;5025467;28;20687;-78
2021/08/10 09:34:44;;;;;;;612.03;545.92;;;;;;;;;;5043374;28;20049;-78
2021/08/10 09:37:15;;;;;;;595.83;530.10;;;;;;;;;;5025039;28;20609;-78
2021/08/10 09:39:41;;;;;;;604.80;538.72;;;;;;;;;;5043549;28;20035;-78
2021/08/10 09:42:10;;;;;;;595.38;528.83;;;;;;;;;;5025741;28;20355;-79
2021/08/10 09:44:39;;;;;;;590.63;524.88;;;;;;;;;;5025176;28;20032;-78
2021/08/10 09:47:06;;;;;;;598.47;530.57;;;;;;;;;;5040445;28;20021;-78
2021/08/10 09:49:46;;;;;;;593.28;527.47;;;;;;;;;;5014189;28;20025;-78
2021/08/10 09:52:25;;;;;;;587.65;507.80;;;;;;;;;;5017569;28;20029;-79
2021/08/10 09:55:11;;;;;;;597.22;530.08;;;;;;;;;;5014919;28;20763;-81
2021/08/10 09:57:39;;;;;;;583.10;511.08;;;;;;;;;;5022678;28;20492;-79
2021/08/10 10:00:08;;;;;;;586.80;514.08;;;;;;;;;;5021819;28;20032;-80
2021/08/10 10:02:34;;;;;;;589.25;517.35;;;;;;;;;;5021549;28;20037;-80
2021/08/10 10:05:00;;;;;;;595.03;523.58;;;;;;;;;;5020390;28;20072;-74
2021/08/10 10:07:26;;;;;;;591.97;523.50;;;;;;;;;;5018824;28;20033;-79
2021/08/10 10:09:52;;;;;;;587.05;514.63;;;;;;;;;;5016249;28;20121;-74
2021/08/10 10:12:20;;;;;;;610.03;534.50;;;;;;;;;;5016241;28;20037;-77
2021/08/10 10:21:22;;;;;;;588.13;515.65;;;;;;;;;;5014133;28;20049;-87
2021/08/10 10:24:01;;;;;;;586.45;517.10;;;;;;;;;;5027453;28;20033;-86
2021/08/10 10:26:32;;;;;;;602.45;532.72;;;;;;;;;;5027673;28;20056;-84
2021/08/10 10:32:24;;;;;;;589.08;523.92;;;;;;;;;;5011465;28;20384;-86
2021/08/10 10:34:53;;;;;;;581.38;516.10;;;;;;;;;;4989234;28;20034;-82
2021/08/10 10:37:36;;;;;;;593.53;525.13;;;;;;;;;;5029949;28;20034;-87
2021/08/10 10:40:07;;;;;;;592.47;528.15;;;;;;;;;;5024770;28;20034;-87
2021/08/10 10:43:03;;;;;;;619.40;553.58;;;;;;;;;;5017510;28;20034;-88
2021/08/10 10:45:55;;;;;;;627.35;561.50;;;;;;;;;;5042010;28;20125;-85
2021/08/10 10:48:45;;;;;;;616.20;551.65;;;;;;;;;;5030121;28;20091;-82
2021/08/10 10:51:13;;;;;;;619.90;554.92;;;;;;;;;;5026857;28;20083;-84
2021/08/10 10:53:44;;;;;;;617.33;551.58;;;;;;;;;;5016471;28;20045;-84
2021/08/10 10:56:30;;;;;;;604.97;540.17;;;;;;;;;;5020853;28;20108;-77
2021/08/10 10:59:16;;;;;;;597.05;532.25;;;;;;;;;;5046516;28;20021;-76
2021/08/10 11:01:42;;;;;;;594.53;529.60;;;;;;;;;;5018440;28;20059;-77
2021/08/10 11:04:09;;;;;;;586.40;521.95;;;;;;;;;;5022110;28;20029;-78
2021/08/10 11:07:01;;;;;;;602.67;537.53;;;;;;;;;;5044165;28;20028;-77
2021/08/10 11:09:39;;;;;;;599.38;533.80;;;;;;;;;;5043385;28;20418;-77
2021/08/10 11:12:25;;;;;;;600.08;534.60;;;;;;;;;;5028116;28;20124;-79
2021/08/10 11:14:51;;;;;;;595.97;530.85;;;;;;;;;;5030267;28;20229;-78
2021/08/10 11:17:18;;;;;;;624.97;559.03;;;;;;;;;;5045783;28;20209;-77
2021/08/10 11:19:48;;;;;;;643.35;577.65;;;;;;;;;;5020609;28;20363;-77
2021/08/10 11:22:17;;;;;;;664.28;598.47;;;;;;;;;;5045792;28;20055;-77
2021/08/10 11:24:45;;;;;;;674.40;609.38;;;;;;;;;;5042129;28;20076;-78
2021/08/10 11:27:31;;;;;;;704.03;638.28;;;;;;;;;;5038302;28;20029;-77
2021/08/10 11:29:58;;;;;;;740.55;673.50;;;;;;;;;;5050080;28;20468;-78
2021/08/10 11:32:46;;;;;;;752.80;686.03;;;;;;;;;;5021527;28;20037;-77
2021/08/10 11:35:29;;;;;;;786.45;718.22;;;;;;;;;;5024662;28;20064;-78
2021/08/10 11:38:14;;;;;;;793.08;724.90;;;;;;;;;;5031666;28;20470;-79
2021/08/10 11:40:50;;;;;;;792.90;724.80;;;;;;;;;;5026207;28;20095;-79
2021/08/10 11:43:16;;;;;;;781.42;714.05;;;;;;;;;;5039825;28;20092;-78
2021/08/10 11:45:42;;;;;;;758.85;691.90;;;;;;;;;;5024801;28;20078;-78
2021/08/10 11:48:08;;;;;;;735.80;669.42;;;;;;;;;;5045044;28;20037;-79
2021/08/10 11:50:35;;;;;;;722.40;656.20;;;;;;;;;;5029432;28;20749;-77
2021/08/10 11:53:02;;;;;;;702.88;637.22;;;;;;;;;;5050947;28;20029;-78
2021/08/10 11:58:43;;;;;;;684.78;619.00;;;;;;;;;;5052434;28;20037;-85
2021/08/10 12:01:22;;;;;;;675.10;609.28;;;;;;;;;;5032880;28;20352;-86
2021/08/10 12:04:13;;;;;;;676.97;611.15;;;;;;;;;;5021718;28;20021;-87
2021/08/10 12:07:19;;;;;;;689.63;623.53;;;;;;;;;;5033951;28;20037;-91
2021/08/10 12:09:49;;;;;;;685.88;620.05;;;;;;;;;;4949905;29;20058;-86
2021/08/10 12:12:15;;;;;;;673.03;607.55;;;;;;;;;;4967366;28;20459;-79
2021/08/10 12:14:41;;;;;;;682.78;616.72;;;;;;;;;;5037890;28;20048;-79
2021/08/10 12:17:08;;;;;;;665.75;600.35;;;;;;;;;;5031608;28;20052;-80
2021/08/10 12:19:48;;;;;;;652.15;586.92;;;;;;;;;;5034219;28;20122;-80
2021/08/10 12:22:20;;;;;;;643.63;578.23;;;;;;;;;;5033115;28;20032;-80
2021/08/10 12:24:47;;;;;;;640.13;575.03;;;;;;;;;;5039798;28;20083;-79
2021/08/10 12:27:15;;;;;;;634.47;569.67;;;;;;;;;;5031057;28;20033;-80
2021/08/10 12:29:43;;;;;;;635.65;570.67;;;;;;;;;;5018909;28;20403;-80
2021/08/10 12:32:11;;;;;;;642.53;577.17;;;;;;;;;;5025715;28;20129;-79
2021/08/10 12:34:38;;;;;;;638.10;573.13;;;;;;;;;;5048449;28;20033;-81
2021/08/10 12:37:05;;;;;;;640.47;575.22;;;;;;;;;;5031432;28;20387;-79
2021/08/10 12:39:36;;;;;;;644.55;579.10;;;;;;;;;;5040162;28;20029;-78
2021/08/10 12:42:02;;;;;;;644.80;580.03;;;;;;;;;;5029104;28;20033;-82
2021/08/10 12:44:29;;;;;;;680.30;614.90;;;;;;;;;;5024992;28;20116;-78
2021/08/10 12:46:59;;;;;;;714.53;648.70;;;;;;;;;;5043259;28;20025;-78
2021/08/10 12:49:35;;;;;;;730.83;664.97;;;;;;;;;;5036364;28;20025;-78
2021/08/10 12:52:07;;;;;;;739.83;674.05;;;;;;;;;;5017112;28;20060;-78
2021/08/10 12:54:37;;;;;;;745.15;679.05;;;;;;;;;;5023103;28;20087;-77
2021/08/10 12:57:18;;;;;;;732.33;666.25;;;;;;;;;;5015417;28;20030;-79
2021/08/10 12:59:48;;;;;;;720.38;654.67;;;;;;;;;;5018864;28;20454;-78
2021/08/10 13:02:30;;;;;;;712.05;646.58;;;;;;;;;;5029907;28;20113;-79
2021/08/10 13:04:57;;;;;;;708.67;643.38;;;;;;;;;;5030326;28;20383;-78
2021/08/10 13:07:24;;;;;;;702.00;636.95;;;;;;;;;;5031310;28;20056;-78
2021/08/10 13:09:51;;;;;;;709.22;643.95;;;;;;;;;;5020847;28;20057;-77
2021/08/10 13:12:17;;;;;;;707.33;642.13;;;;;;;;;;5026723;28;20026;-75
2021/08/10 13:14:55;;;;;;;693.10;628.17;;;;;;;;;;5033444;28;20025;-77
2021/08/10 13:17:34;;;;;;;703.00;637.80;;;;;;;;;;5025211;28;20022;-77
2021/08/10 13:20:04;;;;;;;736.38;670.50;;;;;;;;;;5032470;28;20117;-78
2021/08/10 13:22:39;;;;;;;759.25;692.92;;;;;;;;;;5015553;28;20037;-76
2021/08/10 13:25:08;;;;;;;776.28;708.35;;;;;;;;;;5017593;28;20044;-79
2021/08/10 13:27:35;;;;;;;779.22;712.58;;;;;;;;;;5028993;28;20420;-77
2021/08/10 13:33:15;;;;;;;783.88;716.85;;;;;;;;;;5016841;28;20124;-82
2021/08/10 13:35:52;;;;;;;780.30;713.85;;;;;;;;;;5022152;28;20020;-82
2021/08/10 13:38:23;;;;;;;797.00;729.90;;;;;;;;;;5028565;28;20052;-81
2021/08/10 13:41:02;;;;;;;808.83;741.75;;;;;;;;;;5017301;28;20117;-82
2021/08/10 13:43:28;;;;;;;811.47;744.20;;;;;;;;;;5030256;28;20045;-82
2021/08/10 13:46:01;;;;;;;795.80;729.17;;;;;;;;;;5020249;28;20038;-82
2021/08/10 13:48:34;;;;;;;791.10;724.30;;;;;;;;;;5029695;28;20083;-82
2021/08/10 13:51:07;;;;;;;772.65;706.38;;;;;;;;;;5015323;28;20036;-82
2021/08/10 13:53:33;;;;;;;764.30;697.90;;;;;;;;;;5025792;28;20420;-81
2021/08/10 13:56:10;;;;;;;752.35;686.28;;;;;;;;;;5024159;28;20112;-82
2021/08/10 13:58:37;;;;;;;759.92;693.20;;;;;;;;;;5033708;28;20044;-78
2021/08/10 14:01:27;;;;;;;;;;;;;;;;;;;;;
2021/08/10 14:03:59;;;;;;;779.58;712.60;;;;;;;;;;5048174;28;20025;-83
2021/08/10 14:06:29;;;;;;;779.97;713.25;;;;;;;;;;5038837;28;20052;-81
2021/08/10 14:09:08;;;;;;;786.97;720.13;;;;;;;;;;5040734;28;20108;-81
2021/08/10 14:12:07;;;;;;;;;;;;;;;;;;;;;
2021/08/10 14:14:36;;;;;;;;;;;;;;;;;;5047821;28;20021;-84
2021/08/10 14:17:34;;;;;;;758.83;692.53;;;;;;;;;;5032429;28;20381;-83
2021/08/10 14:20:06;;;;;;;764.67;698.17;;;;;;;;;;5039680;28;20028;-82
2021/08/10 14:22:35;;;;;;;769.42;703.08;;;;;;;;;;5036223;28;20045;-83
2021/08/10 14:25:01;;;;;;;774.50;707.83;;;;;;;;;;5034202;28;20029;-83